KFAR/FAR METAR and TAF weather

Enter ICAO airport designator
Station Type Date Time Source
KFAR METAR 2021/09/24 05:53 UTC NOAA

KFAR 240553Z 01010KT 10SM CLR 18/08 A2986 RMK AO2 RAB10E19 SLP110 P0000 60000 T01780078 10211 20150 402500106 51004


Station Type Date Time Source
KFAR Decoded METAR 2021/09/24 05:53 UTC NOAA

HECTOR INTERNATIONAL AIRPORT , ND, United States (KFAR) 46-56N 096-49W 277M
Sep 24, 2021 - 01:53 AM EDT / 2021.09.24 0553 UTC
Wind: from the N (010 degrees) at 12 MPH (10 KT):0
Visibility: 10 mile(s):0
Sky conditions: clear
Precipitation last hour: A trace
Temperature: 64.0 F (17.8 C)
Dew Point: 46.0 F (7.8 C)
Relative Humidity: 51%
Pressure (altimeter): 29.86 in. Hg (1011 hPa)
Pressure tendency: 0.01 inches (0.4 hPa) higher than three hours ago
ob: KFAR 240553Z 01010KT 10SM CLR 18/08 A2986 RMK AO2 RAB10E19 SLP110 P0000 60000 T01780078 10211 20150 402500106 51004
cycle: 6

Station Type Date Time Source
KFAR TAF 2021/09/24 06:22 UTC NOAA

TAF KFAR 240520Z 2406/2506 33008KT P6SM VCSH SCT090 BKN150
FM241100 33010KT P6SM SCT150
FM241500 33013G21KT P6SM FEW250
FM250100 29006KT P6SM FEW250

Example: see airport list